Time;durP1;ratioP1;P1;durP2;ratioP2;P2;SDS_P1;SDS_P2;PMS_P1;PMS_P2;Temp;Humidity;BMP_temperature;BMP_pressure;BME280_temperature;BME280_humidity;BME280_pressure;Samples;Min_cycle;Max_cycle;Signal;HPM_P1;HPM_P2
2022/01/10 00:02:15;;;;;;;54.77;34.80;;;;;;;;;;5069645;28;20466;-81
2022/01/10 00:04:41;;;;;;;55.30;35.23;;;;;;;;;;5072639;28;20544;-81
2022/01/10 00:07:07;;;;;;;53.97;35.70;;;;;;;;;;5072683;28;20428;-81
2022/01/10 00:09:33;;;;;;;53.63;34.33;;;;;;;;;;5070518;28;20423;-81
2022/01/10 00:11:59;;;;;;;53.13;32.60;;;;;;;;;;5075134;28;20437;-81
2022/01/10 00:14:26;;;;;;;45.40;30.30;;;;;;;;;;5074120;28;21256;-81
2022/01/10 00:16:52;;;;;;;42.50;27.23;;;;;;;;;;5072354;28;21096;-81
2022/01/10 00:19:19;;;;;;;42.77;26.33;;;;;;;;;;5070815;28;20452;-81
2022/01/10 00:21:45;;;;;;;36.13;22.47;;;;;;;;;;5070821;28;20444;-81
2022/01/10 00:24:11;;;;;;;30.50;20.17;;;;;;;;;;5070846;28;20509;-81
2022/01/10 00:26:37;;;;;;;32.23;22.03;;;;;;;;;;5073549;28;20544;-81
2022/01/10 00:29:03;;;;;;;30.50;19.63;;;;;;;;;;5074006;28;20537;-81
2022/01/10 00:31:29;;;;;;;29.90;18.90;;;;;;;;;;5084185;28;20543;-81
2022/01/10 00:33:55;;;;;;;28.27;17.70;;;;;;;;;;5071571;28;21331;-81
2022/01/10 00:36:21;;;;;;;25.97;17.77;;;;;;;;;;5072366;28;21352;-81
2022/01/10 00:38:48;;;;;;;25.83;18.20;;;;;;;;;;5072203;28;20417;-81
2022/01/10 00:41:14;;;;;;;24.00;16.47;;;;;;;;;;5072420;28;20472;-81
2022/01/10 00:43:45;;;;;;;26.97;17.00;;;;;;;;;;5073452;28;21090;-81
2022/01/10 00:46:12;;;;;;;23.33;15.63;;;;;;;;;;5073539;28;20428;-81
2022/01/10 00:48:38;;;;;;;24.93;15.20;;;;;;;;;;5071155;28;20429;-81
2022/01/10 00:51:04;;;;;;;23.27;13.43;;;;;;;;;;5072367;28;21361;-81
2022/01/10 00:53:30;;;;;;;19.73;13.87;;;;;;;;;;5070262;28;20424;-81
2022/01/10 00:55:56;;;;;;;19.60;13.20;;;;;;;;;;5068452;28;21260;-81
2022/01/10 00:58:22;;;;;;;19.33;12.70;;;;;;;;;;5070006;28;21327;-81
2022/01/10 01:00:48;;;;;;;16.40;11.40;;;;;;;;;;5072594;28;20494;-81
2022/01/10 01:03:14;;;;;;;18.87;12.30;;;;;;;;;;5069974;28;20460;-81
2022/01/10 01:05:43;;;;;;;20.10;12.30;;;;;;;;;;5072693;28;21007;-81
2022/01/10 01:08:10;;;;;;;18.80;12.20;;;;;;;;;;5071947;28;21216;-81
2022/01/10 01:15:56;;;;;;;18.57;11.73;;;;;;;;;;5064983;28;20433;-81
2022/01/10 01:18:45;;;;;;;20.87;12.77;;;;;;;;;;5071173;28;20437;-81
2022/01/10 01:24:07;;;;;;;18.23;11.93;;;;;;;;;;5069290;28;20509;-81
2022/01/10 01:26:37;;;;;;;19.27;13.17;;;;;;;;;;5066536;28;20417;-81
2022/01/10 01:29:04;;;;;;;22.87;14.83;;;;;;;;;;5072695;28;20413;-81
2022/01/10 01:31:31;;;;;;;20.33;13.77;;;;;;;;;;5073331;28;20428;-81
2022/01/10 01:33:57;;;;;;;22.57;14.50;;;;;;;;;;5066992;28;20425;-81
2022/01/10 01:36:25;;;;;;;24.27;15.77;;;;;;;;;;5068834;28;20432;-81
2022/01/10 01:38:52;;;;;;;23.93;15.53;;;;;;;;;;5071215;28;20434;-81
2022/01/10 01:43:52;;;;;;;28.10;17.23;;;;;;;;;;5071728;28;21222;-81
2022/01/10 01:46:18;;;;;;;25.10;16.57;;;;;;;;;;5066174;28;20421;-81
2022/01/10 01:48:45;;;;;;;27.97;17.60;;;;;;;;;;5066091;28;20498;-81
2022/01/10 01:51:11;;;;;;;24.33;16.90;;;;;;;;;;5069646;28;20412;-81
2022/01/10 01:53:38;;;;;;;25.70;16.87;;;;;;;;;;5072286;28;20463;-81
2022/01/10 01:56:05;;;;;;;29.33;18.57;;;;;;;;;;5066630;28;20542;-81
2022/01/10 01:58:32;;;;;;;30.23;19.73;;;;;;;;;;5067053;28;20420;-81
2022/01/10 02:00:58;;;;;;;29.13;18.63;;;;;;;;;;5069160;28;20425;-79
2022/01/10 02:03:24;;;;;;;33.30;21.23;;;;;;;;;;5065894;28;20456;-79
2022/01/10 02:05:50;;;;;;;27.57;19.33;;;;;;;;;;5068234;28;21194;-79
2022/01/10 02:08:16;;;;;;;31.03;20.53;;;;;;;;;;5068648;28;20420;-79
2022/01/10 02:10:42;;;;;;;30.10;19.77;;;;;;;;;;5070690;28;20474;-79
2022/01/10 02:13:08;;;;;;;31.53;20.53;;;;;;;;;;5072476;28;20417;-78
2022/01/10 02:18:20;;;;;;;36.20;20.30;;;;;;;;;;5066686;28;20446;-79
2022/01/10 02:20:47;;;;;;;29.20;18.97;;;;;;;;;;5070444;28;20724;-78
2022/01/10 02:23:14;;;;;;;30.27;19.87;;;;;;;;;;5071237;28;21348;-79
2022/01/10 02:25:40;;;;;;;31.90;21.17;;;;;;;;;;5066577;28;20439;-79
2022/01/10 02:28:06;;;;;;;33.20;22.83;;;;;;;;;;5067798;28;20460;-79
2022/01/10 02:30:33;;;;;;;32.17;21.20;;;;;;;;;;5068071;28;20425;-78
2022/01/10 02:33:00;;;;;;;31.77;21.13;;;;;;;;;;5068463;28;20428;-79
2022/01/10 02:35:40;;;;;;;30.97;19.40;;;;;;;;;;5062627;28;21232;-78
2022/01/10 02:38:07;;;;;;;30.90;20.60;;;;;;;;;;5069572;28;21314;-78
2022/01/10 02:40:34;;;;;;;31.07;20.20;;;;;;;;;;5069181;28;20426;-79
2022/01/10 02:43:00;;;;;;;28.70;18.50;;;;;;;;;;5065592;28;20448;-78
2022/01/10 02:45:26;;;;;;;33.10;20.40;;;;;;;;;;5067162;28;21105;-79
2022/01/10 02:47:53;;;;;;;28.90;18.90;;;;;;;;;;5069561;28;20444;-78
2022/01/10 02:50:20;;;;;;;28.10;17.73;;;;;;;;;;5069761;28;20432;-79
2022/01/10 02:52:46;;;;;;;29.07;18.77;;;;;;;;;;5069256;28;21199;-78
2022/01/10 02:55:12;;;;;;;29.83;18.23;;;;;;;;;;5067076;28;20421;-79
2022/01/10 02:57:39;;;;;;;29.77;18.10;;;;;;;;;;5068883;28;20424;-79
2022/01/10 03:00:10;;;;;;;27.00;17.93;;;;;;;;;;5064124;28;20437;-78
2022/01/10 03:02:37;;;;;;;24.80;16.40;;;;;;;;;;5066324;28;20432;-79
2022/01/10 03:05:04;;;;;;;25.47;15.30;;;;;;;;;;5067379;28;20503;-79
2022/01/10 03:07:30;;;;;;;23.80;15.77;;;;;;;;;;5068275;28;20464;-79
2022/01/10 03:09:56;;;;;;;21.73;15.00;;;;;;;;;;5069523;28;20429;-79
2022/01/10 03:12:22;;;;;;;25.73;16.60;;;;;;;;;;5070418;28;20470;-79
2022/01/10 03:14:49;;;;;;;25.47;17.07;;;;;;;;;;5073123;28;21239;-79
2022/01/10 03:17:15;;;;;;;25.30;16.37;;;;;;;;;;5074406;28;20428;-78
2022/01/10 03:19:41;;;;;;;28.10;17.73;;;;;;;;;;5072372;28;20436;-78
2022/01/10 03:22:08;;;;;;;28.33;17.60;;;;;;;;;;5070803;28;20577;-78
2022/01/10 03:24:34;;;;;;;30.20;18.97;;;;;;;;;;5071705;28;20452;-79
2022/01/10 03:27:00;;;;;;;32.67;20.53;;;;;;;;;;5069775;28;20652;-78
2022/01/10 03:29:27;;;;;;;33.07;20.47;;;;;;;;;;5066481;28;20434;-78
2022/01/10 03:31:53;;;;;;;33.33;21.27;;;;;;;;;;5070127;28;21329;-79
2022/01/10 03:34:19;;;;;;;35.77;22.30;;;;;;;;;;5072580;28;20468;-78
2022/01/10 03:36:45;;;;;;;35.37;22.97;;;;;;;;;;5074672;28;20424;-79
2022/01/10 03:39:12;;;;;;;36.57;21.73;;;;;;;;;;5074691;28;20427;-78
2022/01/10 03:41:39;;;;;;;33.50;20.90;;;;;;;;;;5070637;28;20428;-78
2022/01/10 03:44:06;;;;;;;40.50;25.07;;;;;;;;;;5071818;28;20463;-79
2022/01/10 03:46:33;;;;;;;38.73;23.93;;;;;;;;;;5071527;28;20455;-79
2022/01/10 03:48:59;;;;;;;40.80;24.23;;;;;;;;;;5069178;28;20429;-78
2022/01/10 03:51:25;;;;;;;43.40;25.83;;;;;;;;;;5070424;28;21423;-78
2022/01/10 03:53:52;;;;;;;45.17;26.53;;;;;;;;;;5071647;28;20424;-78
2022/01/10 03:56:18;;;;;;;43.00;26.50;;;;;;;;;;5072737;28;20428;-79
2022/01/10 03:58:44;;;;;;;43.37;27.37;;;;;;;;;;5066937;28;22136;-78
2022/01/10 04:01:12;;;;;;;43.53;26.17;;;;;;;;;;5068609;28;20447;-78
2022/01/10 04:03:38;;;;;;;43.77;26.70;;;;;;;;;;5065240;28;21118;-78
2022/01/10 04:06:04;;;;;;;45.47;27.57;;;;;;;;;;5072811;28;20555;-78
2022/01/10 04:08:32;;;;;;;45.77;28.90;;;;;;;;;;5071519;28;20435;-78
2022/01/10 04:10:58;;;;;;;45.70;28.23;;;;;;;;;;5069267;28;20432;-78
2022/01/10 04:13:24;;;;;;;50.60;30.90;;;;;;;;;;5069850;28;20424;-78
2022/01/10 04:15:50;;;;;;;48.43;28.87;;;;;;;;;;5069029;28;20429;-78
2022/01/10 04:18:16;;;;;;;49.00;28.93;;;;;;;;;;5069686;28;20434;-78
2022/01/10 04:20:43;;;;;;;50.67;30.30;;;;;;;;;;5070599;28;20474;-79
2022/01/10 04:23:09;;;;;;;53.97;32.50;;;;;;;;;;5071666;28;20544;-79
2022/01/10 04:25:35;;;;;;;55.33;34.67;;;;;;;;;;5068815;28;20555;-78
2022/01/10 04:28:02;;;;;;;50.23;32.40;;;;;;;;;;5065371;28;20418;-78
2022/01/10 04:30:28;;;;;;;57.57;33.67;;;;;;;;;;5066156;28;20425;-78
2022/01/10 04:32:56;;;;;;;60.40;35.07;;;;;;;;;;5070111;28;20417;-79
2022/01/10 04:35:22;;;;;;;65.17;36.03;;;;;;;;;;5074471;28;20424;-78
2022/01/10 04:37:48;;;;;;;53.60;33.17;;;;;;;;;;5067829;28;20427;-79
2022/01/10 04:40:15;;;;;;;61.87;36.53;;;;;;;;;;5071574;28;20421;-79
2022/01/10 04:42:41;;;;;;;68.47;40.73;;;;;;;;;;5068440;28;20413;-79
2022/01/10 04:45:07;;;;;;;67.40;40.13;;;;;;;;;;5069770;28;20980;-79
2022/01/10 04:47:33;;;;;;;65.10;40.03;;;;;;;;;;5067274;28;22322;-78
2022/01/10 04:52:45;;;;;;;64.37;40.20;;;;;;;;;;5071355;28;20461;-78
2022/01/10 04:55:11;;;;;;;63.03;37.00;;;;;;;;;;5067946;28;21307;-79
2022/01/10 04:57:38;;;;;;;63.60;36.80;;;;;;;;;;5068228;28;20422;-78
2022/01/10 05:00:05;;;;;;;52.93;33.73;;;;;;;;;;5064855;28;21223;-78
2022/01/10 05:02:31;;;;;;;62.50;37.17;;;;;;;;;;5070438;28;20525;-78
2022/01/10 05:04:57;;;;;;;58.13;33.43;;;;;;;;;;5067845;28;21269;-78
2022/01/10 05:07:23;;;;;;;57.73;34.83;;;;;;;;;;5068310;28;21117;-79
2022/01/10 05:09:49;;;;;;;63.70;35.73;;;;;;;;;;5068040;28;20428;-78
2022/01/10 05:12:15;;;;;;;54.93;32.97;;;;;;;;;;5070256;28;20421;-78
2022/01/10 05:14:41;;;;;;;56.20;34.50;;;;;;;;;;5070004;28;20433;-79
2022/01/10 05:17:07;;;;;;;57.87;34.20;;;;;;;;;;5067642;28;20468;-79
2022/01/10 05:19:34;;;;;;;49.27;31.37;;;;;;;;;;5066198;28;20444;-79
2022/01/10 05:22:00;;;;;;;53.23;31.90;;;;;;;;;;5070588;28;20481;-79
2022/01/10 05:24:26;;;;;;;53.40;31.13;;;;;;;;;;5070670;28;20460;-79
2022/01/10 05:26:52;;;;;;;49.13;30.00;;;;;;;;;;5081964;28;21047;-79
2022/01/10 05:29:18;;;;;;;51.50;30.53;;;;;;;;;;5066972;28;21306;-78
2022/01/10 05:31:45;;;;;;;43.00;24.73;;;;;;;;;;5072303;28;20428;-79
2022/01/10 05:34:11;;;;;;;40.17;23.97;;;;;;;;;;5070222;28;21274;-79
2022/01/10 05:36:38;;;;;;;45.50;26.53;;;;;;;;;;5067027;28;20702;-79
2022/01/10 05:39:07;;;;;;;38.07;23.93;;;;;;;;;;5067653;28;21259;-79
2022/01/10 05:41:33;;;;;;;37.80;23.40;;;;;;;;;;5070685;28;20468;-79
2022/01/10 05:43:59;;;;;;;35.30;20.90;;;;;;;;;;5067756;28;20507;-79
2022/01/10 05:46:26;;;;;;;33.57;21.23;;;;;;;;;;5068016;28;20432;-79
2022/01/10 05:48:54;;;;;;;39.27;22.20;;;;;;;;;;5067164;28;20455;-78
2022/01/10 05:51:20;;;;;;;33.47;19.73;;;;;;;;;;5069969;28;21280;-79
2022/01/10 05:53:48;;;;;;;37.70;21.63;;;;;;;;;;5068053;28;20521;-79
2022/01/10 05:56:15;;;;;;;32.23;20.27;;;;;;;;;;5062478;28;20433;-79
2022/01/10 05:58:41;;;;;;;30.17;18.77;;;;;;;;;;5065578;28;20428;-79
2022/01/10 06:01:07;;;;;;;35.57;21.03;;;;;;;;;;5064549;28;20432;-79
2022/01/10 06:03:33;;;;;;;33.67;19.97;;;;;;;;;;5064680;28;20453;-79
2022/01/10 06:05:59;;;;;;;31.07;18.80;;;;;;;;;;5066331;28;20420;-79
2022/01/10 06:08:26;;;;;;;33.60;19.90;;;;;;;;;;5065533;28;20429;-79
2022/01/10 06:10:52;;;;;;;32.67;20.20;;;;;;;;;;5065183;28;21132;-79
2022/01/10 06:13:18;;;;;;;34.00;21.20;;;;;;;;;;5071233;28;20413;-79
2022/01/10 06:15:44;;;;;;;33.73;20.00;;;;;;;;;;5069515;28;20482;-79
2022/01/10 06:18:10;;;;;;;32.50;19.47;;;;;;;;;;5064628;28;20460;-79
2022/01/10 06:20:54;;;;;;;30.13;19.47;;;;;;;;;;5064710;28;20468;-79
2022/01/10 06:23:21;;;;;;;34.60;20.40;;;;;;;;;;5070348;28;20453;-78
2022/01/10 06:25:47;;;;;;;35.63;20.67;;;;;;;;;;5068489;28;21266;-78
2022/01/10 06:28:14;;;;;;;33.47;21.33;;;;;;;;;;5066522;28;20424;-78
2022/01/10 06:30:41;;;;;;;34.37;19.97;;;;;;;;;;5067118;28;20487;-78
2022/01/10 06:33:07;;;;;;;36.00;20.67;;;;;;;;;;5063596;28;20495;-78
2022/01/10 06:35:33;;;;;;;37.20;22.57;;;;;;;;;;5069691;28;20459;-78
2022/01/10 06:37:59;;;;;;;37.60;21.27;;;;;;;;;;5064407;28;21016;-78
2022/01/10 06:40:26;;;;;;;34.67;20.03;;;;;;;;;;5063781;28;20467;-78
2022/01/10 06:42:52;;;;;;;35.50;20.80;;;;;;;;;;5068922;28;20422;-78
2022/01/10 06:45:18;;;;;;;37.57;21.30;;;;;;;;;;5063768;28;20494;-79
2022/01/10 06:47:44;;;;;;;31.53;19.73;;;;;;;;;;5067368;28;20420;-79
2022/01/10 06:50:11;;;;;;;37.10;20.43;;;;;;;;;;5067098;28;20437;-79
2022/01/10 06:52:37;;;;;;;39.43;22.47;;;;;;;;;;5067857;28;20413;-79
2022/01/10 06:55:03;;;;;;;37.03;21.53;;;;;;;;;;5067041;28;20498;-79
2022/01/10 06:57:30;;;;;;;39.37;22.07;;;;;;;;;;5065266;28;20421;-79
2022/01/10 06:59:56;;;;;;;38.37;20.70;;;;;;;;;;5066832;28;20417;-79
2022/01/10 07:02:22;;;;;;;35.47;20.73;;;;;;;;;;5063813;28;20424;-79
2022/01/10 07:04:48;;;;;;;38.80;21.90;;;;;;;;;;5061978;28;20453;-79
2022/01/10 07:07:14;;;;;;;45.10;23.20;;;;;;;;;;5062419;28;21304;-79
2022/01/10 07:09:40;;;;;;;39.43;22.83;;;;;;;;;;5064508;28;21148;-79
2022/01/10 07:12:07;;;;;;;38.07;22.17;;;;;;;;;;5064763;28;20413;-79
2022/01/10 07:14:34;;;;;;;41.83;22.73;;;;;;;;;;5062262;28;20489;-79
2022/01/10 07:17:01;;;;;;;42.77;23.63;;;;;;;;;;5063223;28;20422;-80
2022/01/10 07:19:27;;;;;;;41.33;22.97;;;;;;;;;;5066041;28;20444;-81
2022/01/10 07:21:54;;;;;;;39.93;23.63;;;;;;;;;;5064259;28;21095;-80
2022/01/10 07:24:21;;;;;;;41.60;24.67;;;;;;;;;;5064509;28;20479;-81
2022/01/10 07:26:47;;;;;;;39.30;23.73;;;;;;;;;;5069896;28;20429;-80
2022/01/10 07:29:13;;;;;;;44.70;25.57;;;;;;;;;;5069504;28;20428;-80
2022/01/10 07:31:40;;;;;;;41.80;24.40;;;;;;;;;;5064679;28;21569;-80
2022/01/10 07:34:07;;;;;;;45.37;26.50;;;;;;;;;;5058972;28;20934;-81
2022/01/10 07:36:35;;;;;;;52.33;28.83;;;;;;;;;;5063457;28;20421;-80
2022/01/10 07:39:01;;;;;;;48.93;28.43;;;;;;;;;;5069638;28;20447;-80
2022/01/10 07:41:28;;;;;;;51.13;30.00;;;;;;;;;;5064800;28;20454;-80
2022/01/10 07:43:56;;;;;;;55.10;30.60;;;;;;;;;;5064965;28;20460;-80
2022/01/10 07:46:23;;;;;;;47.87;29.27;;;;;;;;;;5062105;28;20458;-80
2022/01/10 07:48:50;;;;;;;57.07;33.00;;;;;;;;;;5067055;28;20414;-80
2022/01/10 07:51:16;;;;;;;56.80;32.53;;;;;;;;;;5049535;28;20428;-80
2022/01/10 07:53:42;;;;;;;53.63;32.30;;;;;;;;;;5061351;28;20460;-80
2022/01/10 07:56:09;;;;;;;54.77;31.60;;;;;;;;;;5069683;28;20434;-80
2022/01/10 07:58:35;;;;;;;58.00;34.43;;;;;;;;;;5069001;28;20424;-80
2022/01/10 08:01:01;;;;;;;54.67;31.90;;;;;;;;;;5069886;28;20425;-79
2022/01/10 08:03:28;;;;;;;54.43;31.97;;;;;;;;;;5066781;28;20440;-80
2022/01/10 08:05:54;;;;;;;61.27;34.17;;;;;;;;;;5071299;28;20466;-80
2022/01/10 08:08:20;;;;;;;58.83;34.43;;;;;;;;;;5068655;28;21062;-80
2022/01/10 08:10:46;;;;;;;58.23;33.93;;;;;;;;;;5066005;28;20421;-80
2022/01/10 08:13:12;;;;;;;67.77;37.60;;;;;;;;;;5066779;28;21213;-80
2022/01/10 08:15:38;;;;;;;62.90;35.80;;;;;;;;;;5067875;28;20416;-80
2022/01/10 08:18:06;;;;;;;65.17;36.57;;;;;;;;;;5067512;28;20490;-79
2022/01/10 08:20:32;;;;;;;62.70;35.13;;;;;;;;;;5068827;28;20543;-80
2022/01/10 08:22:58;;;;;;;63.63;36.23;;;;;;;;;;5068298;28;21491;-80
2022/01/10 08:25:24;;;;;;;68.97;37.40;;;;;;;;;;5068167;28;20455;-80
2022/01/10 08:27:50;;;;;;;62.53;33.80;;;;;;;;;;5067367;28;20421;-80
2022/01/10 08:30:17;;;;;;;65.97;38.40;;;;;;;;;;5065413;28;20455;-80
2022/01/10 08:32:44;;;;;;;63.80;36.77;;;;;;;;;;5068690;28;20574;-80
2022/01/10 08:35:11;;;;;;;66.50;37.07;;;;;;;;;;5069674;28;20461;-80
2022/01/10 08:37:37;;;;;;;69.70;39.47;;;;;;;;;;5066691;28;20526;-80
2022/01/10 08:40:03;;;;;;;60.00;35.40;;;;;;;;;;5064193;28;20409;-80
2022/01/10 08:42:31;;;;;;;59.03;35.10;;;;;;;;;;5064484;28;20427;-80
2022/01/10 08:44:57;;;;;;;59.63;34.20;;;;;;;;;;5064897;28;20465;-80
2022/01/10 08:47:23;;;;;;;56.57;33.47;;;;;;;;;;5065840;28;20433;-80
2022/01/10 08:49:49;;;;;;;55.57;31.93;;;;;;;;;;5066252;28;20503;-80
2022/01/10 08:52:16;;;;;;;56.20;30.37;;;;;;;;;;5066415;28;20420;-80
2022/01/10 08:54:42;;;;;;;49.57;30.00;;;;;;;;;;5066508;28;20474;-80
2022/01/10 08:57:08;;;;;;;53.27;30.43;;;;;;;;;;5067211;28;21132;-80
2022/01/10 08:59:34;;;;;;;57.53;31.37;;;;;;;;;;5065125;28;20431;-80
2022/01/10 09:02:01;;;;;;;55.73;31.43;;;;;;;;;;5068654;28;21311;-80
2022/01/10 09:04:28;;;;;;;60.27;33.23;;;;;;;;;;5065578;28;20452;-80
2022/01/10 09:06:55;;;;;;;55.00;30.67;;;;;;;;;;5067815;28;20420;-80
2022/01/10 09:09:22;;;;;;;46.43;26.50;;;;;;;;;;5068220;28;20428;-80
2022/01/10 09:11:49;;;;;;;41.90;24.60;;;;;;;;;;5069706;28;20460;-79
2022/01/10 09:14:16;;;;;;;41.13;23.63;;;;;;;;;;5068636;28;20428;-80
2022/01/10 09:16:42;;;;;;;41.43;21.30;;;;;;;;;;5064809;28;20428;-80
2022/01/10 09:19:08;;;;;;;39.37;20.07;;;;;;;;;;5065390;28;21323;-80
2022/01/10 09:21:35;;;;;;;35.53;19.13;;;;;;;;;;5066437;28;20495;-80
2022/01/10 09:24:01;;;;;;;37.63;18.03;;;;;;;;;;5070238;28;20456;-79
2022/01/10 09:26:27;;;;;;;34.43;18.13;;;;;;;;;;5069002;28;20429;-80
2022/01/10 09:28:54;;;;;;;29.93;15.67;;;;;;;;;;5068873;28;20437;-80
2022/01/10 09:31:22;;;;;;;29.60;15.17;;;;;;;;;;5064147;28;20421;-80
2022/01/10 09:33:53;;;;;;;31.33;15.73;;;;;;;;;;5066636;28;20434;-80
2022/01/10 09:36:19;;;;;;;29.50;14.77;;;;;;;;;;5065930;28;20488;-80
2022/01/10 09:38:46;;;;;;;34.33;14.67;;;;;;;;;;5069997;28;21307;-80
2022/01/10 09:41:12;;;;;;;31.33;14.80;;;;;;;;;;5062957;28;21237;-80
2022/01/10 09:43:38;;;;;;;25.63;13.43;;;;;;;;;;5062320;28;20535;-80
2022/01/10 09:46:04;;;;;;;31.17;14.40;;;;;;;;;;5071104;28;20546;-80
2022/01/10 09:48:31;;;;;;;32.97;15.37;;;;;;;;;;5062098;28;20476;-80
2022/01/10 09:50:57;;;;;;;29.40;15.20;;;;;;;;;;5064093;28;20983;-80
2022/01/10 09:53:24;;;;;;;30.17;14.83;;;;;;;;;;5074253;28;20416;-80
2022/01/10 09:55:51;;;;;;;30.87;16.07;;;;;;;;;;5070191;28;20440;-80
2022/01/10 09:58:17;;;;;;;30.53;16.00;;;;;;;;;;5068401;28;20430;-81
2022/01/10 10:00:45;;;;;;;37.87;18.60;;;;;;;;;;5064396;28;20424;-81
2022/01/10 10:03:11;;;;;;;35.93;17.17;;;;;;;;;;5069579;28;20429;-81
2022/01/10 10:05:37;;;;;;;33.93;16.57;;;;;;;;;;5067822;28;20421;-79
2022/01/10 10:08:03;;;;;;;34.40;16.43;;;;;;;;;;5066038;28;20413;-79
2022/01/10 10:10:30;;;;;;;34.33;17.03;;;;;;;;;;5069994;28;20417;-80
2022/01/10 10:12:56;;;;;;;37.03;18.70;;;;;;;;;;5055845;28;20536;-79
2022/01/10 10:15:30;;;;;;;29.17;16.40;;;;;;;;;;5068126;28;20425;-79
2022/01/10 10:17:56;;;;;;;34.37;16.47;;;;;;;;;;5071957;28;20448;-79
2022/01/10 10:20:23;;;;;;;36.30;17.27;;;;;;;;;;5070521;28;20440;-79
2022/01/10 10:22:52;;;;;;;36.80;19.37;;;;;;;;;;5070402;28;20431;-79
2022/01/10 10:25:22;;;;;;;35.07;18.97;;;;;;;;;;5066773;28;20457;-79
2022/01/10 10:27:48;;;;;;;43.87;20.90;;;;;;;;;;5071822;28;21464;-80
2022/01/10 10:30:18;;;;;;;41.73;19.90;;;;;;;;;;5068890;28;21092;-80
2022/01/10 10:32:45;;;;;;;37.40;19.77;;;;;;;;;;5070209;28;21463;-80
2022/01/10 10:35:11;;;;;;;38.67;19.00;;;;;;;;;;5070529;28;20428;-80
2022/01/10 10:37:42;;;;;;;39.27;18.93;;;;;;;;;;5069475;28;20440;-80
2022/01/10 10:40:10;;;;;;;36.17;18.60;;;;;;;;;;5053168;28;20448;-80
2022/01/10 10:42:39;;;;;;;38.90;17.87;;;;;;;;;;5071032;28;20564;-80
2022/01/10 10:45:15;;;;;;;36.33;18.80;;;;;;;;;;5064999;28;20455;-80
2022/01/10 10:47:44;;;;;;;37.07;19.27;;;;;;;;;;5069702;28;21121;-80
2022/01/10 10:50:11;;;;;;;42.43;20.37;;;;;;;;;;5067545;28;20429;-80
2022/01/10 10:52:38;;;;;;;39.67;20.23;;;;;;;;;;5072911;28;20420;-80
2022/01/10 10:55:06;;;;;;;38.40;19.33;;;;;;;;;;5067888;28;20508;-79
2022/01/10 10:57:32;;;;;;;36.50;18.73;;;;;;;;;;5066193;28;20430;-79
2022/01/10 10:59:59;;;;;;;34.77;19.23;;;;;;;;;;5066627;28;21099;-79
2022/01/10 11:02:25;;;;;;;34.33;17.53;;;;;;;;;;5066082;28;20515;-79
2022/01/10 11:04:52;;;;;;;30.37;15.83;;;;;;;;;;5048662;28;20916;-80
2022/01/10 11:07:21;;;;;;;25.93;13.97;;;;;;;;;;5066705;28;20545;-80
2022/01/10 11:09:47;;;;;;;24.03;12.50;;;;;;;;;;5065737;28;20417;-80
2022/01/10 11:12:17;;;;;;;23.03;11.63;;;;;;;;;;5063641;28;20474;-81
2022/01/10 11:14:43;;;;;;;25.60;11.67;;;;;;;;;;5069259;28;20737;-81
2022/01/10 11:17:16;;;;;;;22.87;12.20;;;;;;;;;;5052292;28;20425;-81
2022/01/10 11:19:42;;;;;;;23.80;13.40;;;;;;;;;;5065180;28;20436;-80
2022/01/10 11:22:11;;;;;;;27.00;14.33;;;;;;;;;;5069479;28;20977;-79
2022/01/10 11:24:54;;;;;;;32.07;17.50;;;;;;;;;;5070146;28;20701;-79
2022/01/10 11:27:31;;;;;;;31.00;17.87;;;;;;;;;;5072747;28;20425;-79
2022/01/10 11:29:58;;;;;;;30.63;18.17;;;;;;;;;;5066954;28;21378;-79
2022/01/10 11:32:51;;;;;;;33.37;19.13;;;;;;;;;;5070581;28;21413;-79
2022/01/10 11:35:18;;;;;;;32.40;18.77;;;;;;;;;;5039646;28;20435;-79
2022/01/10 11:37:44;;;;;;;34.27;20.60;;;;;;;;;;5071033;28;20419;-79
2022/01/10 11:40:15;;;;;;;39.80;20.93;;;;;;;;;;5072153;28;21353;-79
2022/01/10 11:42:45;;;;;;;35.90;20.93;;;;;;;;;;5068842;28;20436;-80
2022/01/10 11:45:12;;;;;;;40.97;21.80;;;;;;;;;;5071677;28;20495;-80
2022/01/10 11:47:57;;;;;;;42.23;23.50;;;;;;;;;;5070957;28;20419;-80
2022/01/10 11:50:24;;;;;;;44.00;24.63;;;;;;;;;;5069005;28;20416;-80
2022/01/10 11:52:57;;;;;;;41.47;24.63;;;;;;;;;;5073219;28;20414;-80
2022/01/10 11:55:35;;;;;;;44.30;25.47;;;;;;;;;;5069126;28;20448;-80
2022/01/10 11:58:39;;;;;;;48.77;26.77;;;;;;;;;;5070873;28;20439;-80
2022/01/10 12:01:06;;;;;;;53.07;30.33;;;;;;;;;;5012845;28;20495;-80
2022/01/10 12:03:33;;;;;;;54.43;30.93;;;;;;;;;;5016087;28;20558;-80
2022/01/10 12:05:59;;;;;;;56.37;32.47;;;;;;;;;;5037637;28;20472;-80
2022/01/10 12:08:25;;;;;;;57.17;34.10;;;;;;;;;;5069986;28;20412;-80
2022/01/10 12:10:51;;;;;;;56.83;36.30;;;;;;;;;;5069664;28;20506;-80
2022/01/10 12:13:18;;;;;;;57.33;35.43;;;;;;;;;;5067904;28;20554;-80
2022/01/10 12:15:47;;;;;;;61.57;35.83;;;;;;;;;;5070010;28;20483;-80
2022/01/10 12:18:13;;;;;;;65.47;36.30;;;;;;;;;;5069176;28;21069;-80
2022/01/10 12:20:40;;;;;;;64.97;37.27;;;;;;;;;;5065595;28;20458;-80
2022/01/10 12:23:06;;;;;;;58.10;35.60;;;;;;;;;;5071574;28;20425;-80
2022/01/10 12:25:32;;;;;;;59.67;37.03;;;;;;;;;;5072971;28;20464;-80
2022/01/10 12:28:02;;;;;;;60.20;37.53;;;;;;;;;;5065145;28;20937;-80
2022/01/10 12:30:30;;;;;;;63.53;38.53;;;;;;;;;;5067050;28;20432;-80
2022/01/10 12:32:56;;;;;;;61.27;37.00;;;;;;;;;;5067526;28;20430;-79
2022/01/10 12:35:22;;;;;;;60.40;36.63;;;;;;;;;;5071447;28;21031;-79
2022/01/10 12:37:50;;;;;;;58.20;35.80;;;;;;;;;;5071030;28;20639;-80
2022/01/10 12:40:16;;;;;;;63.37;38.30;;;;;;;;;;5069021;28;20405;-80
2022/01/10 12:43:02;;;;;;;66.97;36.47;;;;;;;;;;5068987;28;20424;-79
2022/01/10 12:45:32;;;;;;;63.63;37.37;;;;;;;;;;5064822;28;20471;-80
2022/01/10 12:47:58;;;;;;;66.63;39.33;;;;;;;;;;5066658;28;20426;-79
2022/01/10 12:50:25;;;;;;;67.03;40.57;;;;;;;;;;5067670;28;20473;-79
2022/01/10 12:52:54;;;;;;;70.43;42.07;;;;;;;;;;5069246;28;20535;-79
2022/01/10 12:55:20;;;;;;;65.03;39.63;;;;;;;;;;5065097;28;20436;-80
2022/01/10 12:57:49;;;;;;;59.40;37.67;;;;;;;;;;5068850;28;20438;-79
2022/01/10 13:00:16;;;;;;;64.97;38.70;;;;;;;;;;5068119;28;20418;-79
2022/01/10 13:02:42;;;;;;;61.27;38.93;;;;;;;;;;5067312;28;20420;-79
2022/01/10 13:05:08;;;;;;;63.07;36.87;;;;;;;;;;5069476;28;21403;-80
2022/01/10 13:07:36;;;;;;;66.10;40.23;;;;;;;;;;5067335;28;20496;-80
2022/01/10 13:10:07;;;;;;;64.70;37.97;;;;;;;;;;5067290;28;20421;-80
2022/01/10 13:12:36;;;;;;;61.70;36.20;;;;;;;;;;5064787;28;20935;-80
2022/01/10 13:15:09;;;;;;;65.43;38.17;;;;;;;;;;5073075;28;20420;-80
2022/01/10 13:17:36;;;;;;;63.17;37.50;;;;;;;;;;5068554;28;20471;-80
2022/01/10 13:20:07;;;;;;;59.70;37.50;;;;;;;;;;5063015;28;20435;-80
2022/01/10 13:22:35;;;;;;;59.50;37.50;;;;;;;;;;5067058;28;20532;-79
2022/01/10 13:25:01;;;;;;;59.53;36.07;;;;;;;;;;5066052;28;20452;-79
2022/01/10 13:27:35;;;;;;;60.43;35.53;;;;;;;;;;5065848;28;20413;-79
2022/01/10 13:30:18;;;;;;;47.83;28.40;;;;;;;;;;5068241;28;20440;-79
2022/01/10 13:32:46;;;;;;;45.43;26.73;;;;;;;;;;5071555;28;21344;-80
2022/01/10 13:35:14;;;;;;;51.73;29.87;;;;;;;;;;5064998;28;20434;-80
2022/01/10 13:37:43;;;;;;;47.30;27.17;;;;;;;;;;5063113;28;20424;-80
2022/01/10 13:40:09;;;;;;;46.17;27.07;;;;;;;;;;5069914;28;21431;-80
2022/01/10 13:42:49;;;;;;;45.37;26.10;;;;;;;;;;5066593;28;20421;-80
2022/01/10 13:45:15;;;;;;;43.17;25.13;;;;;;;;;;5067544;28;21272;-79
2022/01/10 13:47:49;;;;;;;41.53;24.13;;;;;;;;;;5063366;28;21365;-79
2022/01/10 13:50:16;;;;;;;41.90;23.47;;;;;;;;;;5067936;28;20427;-79
2022/01/10 13:52:58;;;;;;;42.23;25.33;;;;;;;;;;5067825;28;20425;-80
2022/01/10 13:55:24;;;;;;;41.83;23.83;;;;;;;;;;5068820;28;20422;-79
2022/01/10 13:57:50;;;;;;;47.07;25.93;;;;;;;;;;5062001;28;20421;-80
2022/01/10 14:00:23;;;;;;;44.03;25.37;;;;;;;;;;5066572;28;20412;-80
2022/01/10 14:02:52;;;;;;;46.50;26.80;;;;;;;;;;5066782;28;20410;-80
2022/01/10 14:05:27;;;;;;;46.63;26.47;;;;;;;;;;5064148;28;21130;-80
2022/01/10 14:07:59;;;;;;;50.27;26.83;;;;;;;;;;5067983;28;21534;-80
2022/01/10 14:10:27;;;;;;;46.93;27.67;;;;;;;;;;5065894;28;20425;-80
2022/01/10 14:12:54;;;;;;;57.70;30.23;;;;;;;;;;5069201;28;21138;-80
2022/01/10 14:15:29;;;;;;;53.50;29.40;;;;;;;;;;5064033;28;20865;-80
2022/01/10 14:18:02;;;;;;;54.47;30.83;;;;;;;;;;5069386;28;20998;-80
2022/01/10 14:20:28;;;;;;;56.50;31.13;;;;;;;;;;5069457;28;20882;-80
2022/01/10 14:23:00;;;;;;;51.20;29.63;;;;;;;;;;5069365;28;20450;-80
2022/01/10 14:25:26;;;;;;;55.93;30.93;;;;;;;;;;5071138;28;20451;-80
2022/01/10 14:27:52;;;;;;;55.23;32.40;;;;;;;;;;5066609;28;20536;-80
2022/01/10 14:30:19;;;;;;;60.90;37.13;;;;;;;;;;5062623;28;21326;-80
2022/01/10 14:32:48;;;;;;;55.67;32.53;;;;;;;;;;5070487;28;20951;-80
2022/01/10 14:35:14;;;;;;;55.07;33.23;;;;;;;;;;5066132;28;20413;-80